Time;durP1;ratioP1;P1;durP2;ratioP2;P2;SDS_P1;SDS_P2;PMS_P1;PMS_P2;Temp;Humidity;BMP_temperature;BMP_pressure;BME280_temperature;BME280_humidity;BME280_pressure;Samples;Min_cycle;Max_cycle;Signal;HPM_P1;HPM_P2
2024/01/02 00:02:13;;;;;;;0.80;0.80;;;;;;;6.59;63.46;97933.56;4986430;28;20018;-90
2024/01/02 00:04:39;;;;;;;0.80;0.80;;;;;;;6.55;63.61;97929.03;4987459;28;20034;-91
2024/01/02 00:07:06;;;;;;;0.80;0.80;;;;;;;6.59;63.56;97928.28;4973687;28;20034;-90
2024/01/02 00:09:31;;;;;;;0.82;0.82;;;;;;;6.56;63.75;97922.84;4988387;28;20096;-89
2024/01/02 00:11:57;;;;;;;0.82;0.82;;;;;;;6.56;63.62;97918.47;4972906;28;20046;-89
2024/01/02 00:14:28;;;;;;;0.80;0.80;;;;;;;6.63;63.10;97912.50;4985260;28;20081;-89
2024/01/02 00:16:54;;;;;;;0.80;0.80;;;;;;;6.66;62.99;97904.66;4970636;28;20134;-90
2024/01/02 00:19:19;;;;;;;0.80;0.80;;;;;;;6.65;62.85;97902.84;4990365;28;20027;-90
2024/01/02 00:21:45;;;;;;;0.88;0.88;;;;;;;6.58;63.25;97895.56;4988806;28;20034;-91
2024/01/02 00:24:10;;;;;;;0.90;0.90;;;;;;;6.64;63.09;97885.16;5003975;28;20043;-90
2024/01/02 00:26:37;;;;;;;0.90;0.90;;;;;;;6.51;63.31;97885.63;4991734;28;20042;-89
2024/01/02 00:29:02;;;;;;;0.90;0.90;;;;;;;6.47;63.52;97878.44;5008030;28;20481;-91
2024/01/02 00:31:28;;;;;;;0.90;0.90;;;;;;;6.57;63.09;97871.69;5009415;28;20058;-91
2024/01/02 00:33:54;;;;;;;0.80;0.80;;;;;;;6.51;63.62;97868.81;5009372;28;20033;-92
2024/01/02 00:36:20;;;;;;;0.90;0.90;;;;;;;6.58;62.99;97881.44;4993104;28;20030;-89
2024/01/02 00:38:45;;;;;;;0.90;0.90;;;;;;;6.50;63.73;97873.22;4991363;28;20408;-89
2024/01/02 00:41:12;;;;;;;0.90;0.90;;;;;;;6.56;63.16;97860.16;4978766;28;20045;-90
2024/01/02 00:43:37;;;;;;;0.80;0.80;;;;;;;6.65;62.73;97862.19;4993948;28;20034;-90
2024/01/02 00:46:04;;;;;;;0.90;0.90;;;;;;;6.86;62.23;97859.31;4993190;28;20263;-89
2024/01/02 00:48:31;;;;;;;0.90;0.90;;;;;;;6.74;62.59;97848.31;4961854;28;20062;-89
2024/01/02 00:51:00;;;;;;;0.90;0.90;;;;;;;6.78;62.52;97843.16;4991709;28;20054;-89
2024/01/02 00:53:27;;;;;;;0.80;0.80;;;;;;;6.80;62.92;97841.44;4996745;28;20153;-89
2024/01/02 00:55:53;;;;;;;0.82;0.82;;;;;;;6.75;62.91;97834.22;4978786;28;20432;-89
2024/01/02 00:58:18;;;;;;;0.88;0.88;;;;;;;6.77;62.76;97829.88;5010316;28;20101;-89
2024/01/02 01:00:44;;;;;;;0.80;0.80;;;;;;;6.86;62.77;97833.69;4983777;28;20030;-90
2024/01/02 01:03:11;;;;;;;0.80;0.80;;;;;;;6.85;62.74;97842.50;4999063;28;20080;-89
2024/01/02 01:05:38;;;;;;;0.90;0.90;;;;;;;6.97;62.62;97838.41;5008083;28;20122;-87
2024/01/02 01:08:04;;;;;;;0.80;0.80;;;;;;;6.83;63.58;97833.59;4991411;28;20042;-90
2024/01/02 01:10:30;;;;;;;0.73;0.73;;;;;;;7.02;62.47;97834.13;4981680;28;20362;-89
2024/01/02 01:12:57;;;;;;;;;;;;;;;6.96;62.91;97832.19;5001515;28;20026;-89
2024/01/02 01:15:24;;;;;;;0.80;0.80;;;;;;;6.98;63.06;97816.31;4995713;28;19985;-88
2024/01/02 01:17:50;;;;;;;0.80;0.80;;;;;;;6.89;63.49;97799.28;4996228;28;20038;-90
2024/01/02 01:20:16;;;;;;;0.80;0.80;;;;;;;6.95;63.14;97801.25;4997851;28;20126;-88
2024/01/02 01:22:44;;;;;;;0.90;0.90;;;;;;;6.97;63.03;97795.97;4997338;28;20435;-88
2024/01/02 01:25:10;;;;;;;0.90;0.90;;;;;;;6.92;63.04;97798.50;5013935;28;20082;-89
2024/01/02 01:27:35;;;;;;;0.80;0.80;;;;;;;6.82;63.58;97801.75;4995500;28;20031;-88
2024/01/02 01:30:01;;;;;;;0.80;0.80;;;;;;;6.82;63.77;97801.75;4980999;28;20260;-89
2024/01/02 01:32:29;;;;;;;0.80;0.80;;;;;;;6.78;63.94;97795.44;4995066;28;20100;-89
2024/01/02 01:34:58;;;;;;;0.77;0.77;;;;;;;6.78;63.61;97787.50;4980314;28;20034;-89
2024/01/02 01:37:23;;;;;;;0.90;0.90;;;;;;;6.74;63.99;97784.72;5013812;28;20038;-91
2024/01/02 01:39:50;;;;;;;0.80;0.80;;;;;;;6.71;64.03;97781.94;4998410;28;20024;-88
2024/01/02 01:42:15;;;;;;;0.80;0.80;;;;;;;6.70;64.28;97773.09;4996292;28;20038;-90
2024/01/02 01:44:42;;;;;;;0.80;0.80;;;;;;;6.59;64.53;97770.16;4997461;28;20376;-89
2024/01/02 01:47:08;;;;;;;;;;;;;;;6.60;64.41;97771.94;4978899;28;20053;-89
2024/01/02 01:49:33;;;;;;;0.73;0.73;;;;;;;6.67;64.24;97768.63;4998401;28;19918;-90
2024/01/02 01:52:01;;;;;;;0.88;0.88;;;;;;;6.59;64.30;97771.91;4998660;28;20100;-89
2024/01/02 01:54:27;;;;;;;0.80;0.80;;;;;;;6.64;64.12;97765.88;5000278;28;20045;-90
2024/01/02 01:56:53;;;;;;;0.90;0.90;;;;;;;6.67;64.21;97763.34;5000093;28;20038;-89
2024/01/02 01:59:19;;;;;;;0.80;0.80;;;;;;;6.74;63.87;97756.44;4986819;28;20030;-89
2024/01/02 02:01:46;;;;;;;0.90;0.90;;;;;;;6.83;63.71;97753.16;4997631;28;20338;-89
2024/01/02 02:04:14;;;;;;;0.90;0.90;;;;;;;6.78;64.17;97755.69;5012265;28;20076;-89
2024/01/02 02:06:39;;;;;;;0.80;0.80;;;;;;;6.74;64.27;97745.84;4983570;28;20050;-89
2024/01/02 02:09:05;;;;;;;0.82;0.82;;;;;;;6.88;63.83;97743.56;4973332;28;20026;-88
2024/01/02 02:11:31;;;;;;;0.80;0.80;;;;;;;6.78;64.29;97733.56;4989568;28;20034;-88
2024/01/02 02:13:58;;;;;;;0.80;0.80;;;;;;;6.86;63.72;97727.63;4973932;28;20433;-88
2024/01/02 02:16:23;;;;;;;0.80;0.80;;;;;;;6.84;64.46;97716.06;5007694;28;20035;-90
2024/01/02 02:18:49;;;;;;;0.80;0.80;;;;;;;6.86;63.73;97713.47;4985824;28;20662;-88
2024/01/02 02:21:15;;;;;;;0.80;0.80;;;;;;;6.83;64.56;97708.09;5009363;28;20503;-90
2024/01/02 02:23:43;;;;;;;0.80;0.80;;;;;;;6.96;63.83;97704.03;5009714;28;20088;-88
2024/01/02 02:26:09;;;;;;;0.80;0.80;;;;;;;6.94;63.75;97701.31;4968511;28;20038;-89
2024/01/02 02:28:35;;;;;;;0.90;0.90;;;;;;;6.98;63.52;97702.28;4977255;28;20030;-89
2024/01/02 02:31:00;;;;;;;0.80;0.80;;;;;;;6.98;64.05;97699.66;5007953;28;20057;-89
2024/01/02 02:33:27;;;;;;;0.85;0.85;;;;;;;6.97;64.08;97704.06;4987891;28;20022;-89
2024/01/02 02:35:53;;;;;;;0.80;0.80;;;;;;;6.96;64.90;97698.72;5007264;28;20038;-89
2024/01/02 02:38:19;;;;;;;0.80;0.80;;;;;;;6.94;65.21;97685.41;4990404;28;20042;-88
2024/01/02 02:40:44;;;;;;;0.80;0.80;;;;;;;6.77;66.19;97677.00;4967248;28;20045;-89
2024/01/02 02:43:10;;;;;;;0.90;0.90;;;;;;;6.73;67.36;97675.13;5005955;28;20034;-88
2024/01/02 02:45:37;;;;;;;0.80;0.80;;;;;;;6.53;67.86;97658.69;4991125;28;20026;-89
2024/01/02 02:48:03;;;;;;;0.80;0.80;;;;;;;6.45;69.95;97659.31;4992377;28;20034;-89
2024/01/02 02:50:29;;;;;;;0.90;0.90;;;;;;;6.30;68.65;97650.09;4995577;28;20440;-88
2024/01/02 02:52:54;;;;;;;0.90;0.90;;;;;;;6.13;69.59;97654.00;4977304;28;20492;-88
2024/01/02 02:55:20;;;;;;;0.80;0.80;;;;;;;6.15;70.98;97652.31;4982351;28;20068;-88
2024/01/02 02:57:47;;;;;;;0.82;0.82;;;;;;;6.36;71.36;97646.72;5001633;28;20026;-89
2024/01/02 03:00:12;;;;;;;1.00;1.00;;;;;;;6.42;71.08;97645.16;4984205;28;20034;-89
2024/01/02 03:02:38;;;;;;;0.90;0.90;;;;;;;6.38;70.61;97637.09;4997816;28;20038;-89
2024/01/02 03:05:04;;;;;;;0.90;0.90;;;;;;;6.28;72.11;97635.03;4992710;28;20038;-88
2024/01/02 03:07:29;;;;;;;0.90;0.90;;;;;;;6.29;71.14;97616.53;5006331;28;20052;-89
2024/01/02 03:09:55;;;;;;;0.90;0.90;;;;;;;6.40;70.81;97614.16;4991223;28;20038;-88
2024/01/02 03:12:20;;;;;;;0.90;0.90;;;;;;;6.28;71.10;97606.78;4989078;28;20034;-88
2024/01/02 03:14:47;;;;;;;0.90;0.90;;;;;;;6.20;71.54;97592.44;4983662;28;20041;-86
2024/01/02 03:17:13;;;;;;;1.00;1.00;;;;;;;6.18;71.85;97588.84;4987345;28;20552;-89
2024/01/02 03:19:38;;;;;;;0.90;0.90;;;;;;;6.09;71.81;97583.28;4988720;28;20045;-89
2024/01/02 03:22:04;;;;;;;0.90;0.90;;;;;;;5.86;73.37;97575.56;4990571;28;20037;-87
2024/01/02 03:24:30;;;;;;;0.90;0.90;;;;;;;5.80;73.39;97577.13;4984504;28;20676;-87
2024/01/02 03:26:56;;;;;;;0.90;0.90;;;;;;;5.80;73.23;97563.91;4983610;28;20035;-87
2024/01/02 03:29:21;;;;;;;0.93;0.93;;;;;;;5.48;74.25;97557.66;5001865;28;20026;-88
2024/01/02 03:31:47;;;;;;;0.80;0.80;;;;;;;5.87;72.41;97548.22;5005069;28;20042;-87
2024/01/02 03:34:12;;;;;;;0.90;0.90;;;;;;;5.76;73.02;97541.75;4972058;28;20038;-88
2024/01/02 03:36:38;;;;;;;0.90;0.90;;;;;;;5.87;71.83;97540.28;4972381;28;20393;-88
2024/01/02 03:39:04;;;;;;;0.90;0.90;;;;;;;5.89;71.97;97533.31;4989705;28;20038;-89
2024/01/02 03:41:30;;;;;;;0.90;0.90;;;;;;;5.83;72.30;97527.81;4990695;28;20125;-88
2024/01/02 03:43:58;;;;;;;0.90;0.90;;;;;;;5.88;72.37;97526.19;4988898;28;20045;-88
2024/01/02 03:46:24;;;;;;;0.80;0.80;;;;;;;5.64;73.62;97521.09;4995487;28;20042;-89
2024/01/02 03:48:49;;;;;;;0.90;0.90;;;;;;;5.79;73.29;97530.34;4975032;28;20042;-88
2024/01/02 03:51:16;;;;;;;0.90;0.90;;;;;;;5.70;74.28;97515.13;5003990;28;20026;-89
2024/01/02 03:53:42;;;;;;;0.90;0.90;;;;;;;5.60;74.79;97515.69;4984838;28;20049;-89
2024/01/02 03:56:10;;;;;;;0.90;0.90;;;;;;;5.68;74.50;97506.22;4983282;28;20036;-88
2024/01/02 03:58:36;;;;;;;0.80;0.80;;;;;;;5.51;75.65;97496.88;4985126;28;20110;-88
2024/01/02 04:01:01;;;;;;;0.90;0.90;;;;;;;5.38;76.73;97491.25;4985289;28;20034;-90
2024/01/02 04:03:27;;;;;;;0.90;0.90;;;;;;;5.55;76.57;97485.53;4984527;28;20496;-87
2024/01/02 04:05:53;;;;;;;0.95;0.95;;;;;;;5.58;76.18;97475.06;4989098;28;20393;-87
2024/01/02 04:08:18;;;;;;;0.90;0.90;;;;;;;5.65;75.20;97471.72;4989258;28;20026;-89
2024/01/02 04:10:45;;;;;;;0.88;0.88;;;;;;;5.61;76.38;97462.81;4992885;28;20078;-89
2024/01/02 04:13:12;;;;;;;0.90;0.90;;;;;;;5.57;76.18;97460.06;4989398;28;20029;-90
2024/01/02 04:15:38;;;;;;;0.80;0.80;;;;;;;5.47;77.53;97455.34;5011918;28;20044;-90
2024/01/02 04:18:04;;;;;;;0.90;0.90;;;;;;;5.55;77.01;97449.41;4992742;28;20408;-87
2024/01/02 04:20:29;;;;;;;1.00;1.00;;;;;;;5.54;76.94;97449.38;4994761;28;20058;-87
2024/01/02 04:22:58;;;;;;;1.00;1.00;;;;;;;5.86;76.20;97450.25;4978963;28;20467;-90
2024/01/02 04:25:24;;;;;;;0.90;0.90;;;;;;;5.82;75.97;97440.44;4996126;28;20044;-88
2024/01/02 04:27:53;;;;;;;0.80;0.80;;;;;;;5.73;77.87;97429.59;4994204;28;20029;-89
2024/01/02 04:30:18;;;;;;;0.90;0.90;;;;;;;5.79;76.63;97432.41;4976309;28;20041;-89
2024/01/02 04:32:44;;;;;;;0.90;0.90;;;;;;;5.84;77.96;97423.72;4993841;28;20034;-91
2024/01/02 04:35:09;;;;;;;0.90;0.90;;;;;;;5.84;77.26;97423.72;4994041;28;20898;-88
2024/01/02 04:37:36;;;;;;;1.00;1.00;;;;;;;5.95;77.07;97426.72;4991741;28;20073;-88
2024/01/02 04:40:04;;;;;;;0.90;0.90;;;;;;;6.03;76.07;97425.13;5004629;28;20041;-87
2024/01/02 04:42:35;;;;;;;0.90;0.90;;;;;;;6.08;76.87;97426.16;4994842;28;20635;-89
2024/01/02 04:45:02;;;;;;;0.82;0.82;;;;;;;6.06;76.87;97417.28;4992995;28;20046;-88
2024/01/02 04:47:28;;;;;;;;;;;;;;;6.03;77.51;97413.66;4974948;28;20031;-90
2024/01/02 04:49:53;;;;;;;1.00;1.00;;;;;;;6.11;76.91;97410.34;4987916;28;19924;-87
2024/01/02 04:52:20;;;;;;;0.90;0.90;;;;;;;5.99;77.88;97401.19;4959990;28;20034;-89
2024/01/02 04:54:46;;;;;;;1.00;1.00;;;;;;;6.05;78.33;97394.31;4976658;28;20057;-88
2024/01/02 04:57:13;;;;;;;0.90;0.90;;;;;;;5.95;78.60;97380.81;4992294;28;20030;-90
2024/01/02 04:59:39;;;;;;;;;;;;;;;6.11;77.92;97377.69;4993413;28;20042;-87
2024/01/02 05:02:05;;;;;;;0.82;0.82;;;;;;;6.06;78.28;97381.97;4990160;28;19929;-86
2024/01/02 05:04:30;;;;;;;0.90;0.90;;;;;;;5.93;78.41;97372.81;5009009;28;20041;-88
2024/01/02 05:06:56;;;;;;;0.90;0.90;;;;;;;5.93;78.98;97370.19;4987939;28;20042;-88
2024/01/02 05:09:21;;;;;;;0.90;0.90;;;;;;;6.01;79.25;97371.28;4987469;28;20057;-89
2024/01/02 05:11:48;;;;;;;1.00;1.00;;;;;;;5.95;79.17;97362.28;4992034;28;20058;-87
2024/01/02 05:14:15;;;;;;;0.98;0.98;;;;;;;6.07;78.62;97373.16;4989910;28;20404;-87
2024/01/02 05:16:43;;;;;;;1.00;1.00;;;;;;;6.04;79.11;97357.22;4977285;28;20101;-88
2024/01/02 05:19:10;;;;;;;0.80;0.80;;;;;;;5.93;80.35;97348.09;4991182;28;20034;-88
2024/01/02 05:21:36;;;;;;;1.00;1.00;;;;;;;5.96;80.08;97343.78;5007018;28;20049;-87
2024/01/02 05:24:03;;;;;;;0.90;0.90;;;;;;;6.03;79.46;97345.72;4990809;28;20033;-90
2024/01/02 05:26:28;;;;;;;1.00;1.00;;;;;;;6.05;79.49;97337.84;4985900;28;20042;-89
2024/01/02 05:28:54;;;;;;;0.90;0.90;;;;;;;5.98;80.24;97336.78;5007190;28;20516;-91
2024/01/02 05:31:19;;;;;;;0.93;0.93;;;;;;;6.06;79.31;97350.22;5014168;28;20394;-89
2024/01/02 05:33:45;;;;;;;0.80;0.80;;;;;;;6.08;79.26;97333.47;4977238;28;20030;-90
2024/01/02 05:36:10;;;;;;;0.80;0.80;;;;;;;6.09;79.67;97329.13;4994314;28;20034;-88
2024/01/02 05:38:37;;;;;;;0.90;0.90;;;;;;;6.04;80.12;97328.13;4994242;28;20172;-89
2024/01/02 05:41:03;;;;;;;0.90;0.90;;;;;;;6.05;80.57;97325.50;4990290;28;20038;-88
2024/01/02 05:43:28;;;;;;;0.90;0.90;;;;;;;6.16;79.05;97323.09;4975485;28;20049;-89
2024/01/02 05:45:53;;;;;;;0.90;0.90;;;;;;;6.05;80.98;97322.84;4972649;28;20327;-88
2024/01/02 05:48:19;;;;;;;0.90;0.90;;;;;;;5.88;80.82;97329.44;4960461;28;20045;-88
2024/01/02 05:50:45;;;;;;;0.90;0.90;;;;;;;5.90;81.02;97301.28;4976848;28;20037;-90
2024/01/02 05:53:13;;;;;;;0.93;0.93;;;;;;;6.10;80.75;97310.59;5007740;28;20031;-87
2024/01/02 05:55:40;;;;;;;0.88;0.88;;;;;;;6.14;81.10;97301.88;4990120;28;20465;-87
2024/01/02 05:58:07;;;;;;;0.90;0.90;;;;;;;6.02;81.47;97300.69;4976588;28;20034;-88
2024/01/02 06:00:32;;;;;;;1.02;1.02;;;;;;;6.15;80.76;97285.13;4985574;28;20057;-88
2024/01/02 06:02:58;;;;;;;0.88;0.88;;;;;;;6.08;81.67;97290.22;5007998;28;20257;-88
2024/01/02 06:05:23;;;;;;;0.80;0.80;;;;;;;6.04;81.45;97283.09;5003307;28;20039;-88
2024/01/02 06:07:49;;;;;;;0.90;0.90;;;;;;;5.95;82.47;97277.59;4984718;28;20588;-90
2024/01/02 06:10:16;;;;;;;0.90;0.90;;;;;;;6.09;82.08;97281.47;4991174;28;20042;-88
2024/01/02 06:12:41;;;;;;;1.00;1.00;;;;;;;5.99;82.71;97263.53;4994424;28;20042;-89
2024/01/02 06:15:07;;;;;;;0.90;0.90;;;;;;;6.09;82.56;97277.06;4993436;28;20046;-89
2024/01/02 06:17:33;;;;;;;0.98;0.98;;;;;;;6.04;82.83;97272.50;4976314;28;20030;-90
2024/01/02 06:20:02;;;;;;;0.90;0.90;;;;;;;6.06;82.82;97284.03;4974877;28;20030;-88
2024/01/02 06:22:28;;;;;;;0.88;0.88;;;;;;;6.09;82.25;97270.88;4978565;28;20857;-89
2024/01/02 06:24:55;;;;;;;0.90;0.90;;;;;;;6.01;83.04;97277.72;4988844;28;20509;-88
2024/01/02 06:27:20;;;;;;;0.90;0.90;;;;;;;5.96;83.35;97266.13;4989542;28;20041;-88
2024/01/02 06:29:46;;;;;;;0.90;0.90;;;;;;;6.13;83.00;97270.97;5005086;28;20034;-88
2024/01/02 06:32:11;;;;;;;0.90;0.90;;;;;;;6.01;82.90;97264.50;4957459;28;20038;-87
2024/01/02 06:34:37;;;;;;;0.90;0.90;;;;;;;6.02;83.10;97255.69;4991595;28;20089;-87
2024/01/02 06:37:03;;;;;;;0.90;0.90;;;;;;;5.99;82.97;97252.94;4993417;28;20034;-87
2024/01/02 06:39:28;;;;;;;0.80;0.80;;;;;;;6.07;82.49;97241.69;4992500;28;20041;-87
2024/01/02 06:41:54;;;;;;;0.90;0.90;;;;;;;5.95;83.54;97246.72;4992220;28;20034;-89
2024/01/02 06:44:20;;;;;;;0.90;0.90;;;;;;;6.13;83.46;97225.97;4997265;28;20473;-88
2024/01/02 06:46:46;;;;;;;1.00;1.00;;;;;;;6.12;83.04;97229.44;4990210;28;20485;-87
2024/01/02 06:49:11;;;;;;;0.90;0.90;;;;;;;6.19;82.76;97227.84;5003302;28;20033;-87
2024/01/02 06:51:37;;;;;;;0.90;0.90;;;;;;;6.07;82.81;97227.56;4976669;28;20140;-87
2024/01/02 06:54:03;;;;;;;0.90;0.90;;;;;;;6.06;84.02;97223.13;4976210;28;20041;-88
2024/01/02 06:56:28;;;;;;;0.80;0.80;;;;;;;6.21;82.60;97227.88;4973153;28;20015;-88
2024/01/02 06:58:54;;;;;;;0.90;0.90;;;;;;;6.15;83.34;97236.56;5004859;28;20041;-88
2024/01/02 07:01:19;;;;;;;0.80;0.80;;;;;;;6.18;83.17;97223.41;4973664;28;20052;-87
2024/01/02 07:03:45;;;;;;;0.88;0.88;;;;;;;6.20;82.84;97236.69;4975400;28;20034;-89
2024/01/02 07:06:11;;;;;;;0.90;0.90;;;;;;;6.20;83.34;97224.31;4984732;28;20075;-87
2024/01/02 07:08:36;;;;;;;0.90;0.90;;;;;;;6.16;83.04;97219.81;4974255;28;20310;-87
2024/01/02 07:11:04;;;;;;;0.80;0.80;;;;;;;6.17;83.60;97211.91;4989720;28;20027;-87
2024/01/02 07:13:29;;;;;;;0.85;0.85;;;;;;;6.14;84.07;97205.66;4971337;28;20049;-88
2024/01/02 07:15:56;;;;;;;0.90;0.90;;;;;;;6.13;83.73;97219.75;4987932;28;20476;-88
2024/01/02 07:18:22;;;;;;;0.90;0.90;;;;;;;6.32;82.63;97215.72;4981402;28;20089;-88
2024/01/02 07:20:48;;;;;;;0.80;0.80;;;;;;;6.34;82.96;97222.88;5004239;28;20041;-89
2024/01/02 07:23:15;;;;;;;0.90;0.90;;;;;;;6.29;82.58;97221.88;5001292;28;20085;-89
2024/01/02 07:25:41;;;;;;;1.00;1.00;;;;;;;6.47;81.95;97220.47;4994771;28;20046;-86
2024/01/02 07:28:06;;;;;;;1.00;1.00;;;;;;;6.50;81.77;97229.38;4987517;28;20101;-88
2024/01/02 07:30:32;;;;;;;0.90;0.90;;;;;;;6.49;81.84;97227.59;4983137;28;20057;-88
2024/01/02 07:32:58;;;;;;;0.90;0.90;;;;;;;6.74;80.94;97214.84;4986946;28;20403;-89
2024/01/02 07:35:23;;;;;;;0.90;0.90;;;;;;;6.56;81.78;97221.53;4990060;28;20034;-89
2024/01/02 07:37:49;;;;;;;0.80;0.80;;;;;;;6.58;81.65;97213.66;5010542;28;20107;-88
2024/01/02 07:40:15;;;;;;;0.90;0.90;;;;;;;6.62;82.00;97221.69;4995307;28;20101;-88
2024/01/02 07:42:41;;;;;;;0.90;0.90;;;;;;;6.59;82.14;97215.41;4994344;28;20022;-89
2024/01/02 07:45:07;;;;;;;0.90;0.90;;;;;;;6.62;81.69;97212.84;4990602;28;20026;-89
2024/01/02 07:47:36;;;;;;;0.90;0.90;;;;;;;6.89;80.32;97209.81;4989558;28;20033;-89
2024/01/02 07:50:04;;;;;;;0.90;0.90;;;;;;;6.80;80.72;97223.78;4986852;28;20034;-90
2024/01/02 07:52:32;;;;;;;0.90;0.90;;;;;;;6.83;80.84;97223.84;5003967;28;20532;-89
2024/01/02 07:54:57;;;;;;;0.90;0.90;;;;;;;6.79;80.28;97232.59;4976304;28;20030;-89
2024/01/02 07:57:25;;;;;;;0.90;0.90;;;;;;;6.96;80.18;97224.09;4980480;28;20468;-89
2024/01/02 07:59:51;;;;;;;0.80;0.80;;;;;;;7.14;78.56;97222.69;4973516;28;20392;-89
2024/01/02 08:02:16;;;;;;;0.80;0.80;;;;;;;7.06;79.17;97223.41;4987979;28;20117;-89
2024/01/02 08:04:42;;;;;;;0.73;0.73;;;;;;;7.06;79.85;97221.66;4988782;28;20440;-89
2024/01/02 08:07:07;;;;;;;0.70;0.70;;;;;;;7.29;77.81;97218.53;4975102;28;20050;-88
2024/01/02 08:09:33;;;;;;;0.80;0.80;;;;;;;7.27;78.63;97221.13;4987657;28;20046;-89
2024/01/02 08:11:59;;;;;;;0.80;0.80;;;;;;;7.37;78.05;97222.19;4990213;28;20057;-90
2024/01/02 08:14:24;;;;;;;0.90;0.90;;;;;;;7.39;77.80;97231.06;5008036;28;20026;-90
2024/01/02 08:16:50;;;;;;;0.80;0.80;;;;;;;7.37;78.50;97232.78;4989302;28;20030;-90
2024/01/02 08:19:16;;;;;;;0.80;0.80;;;;;;;7.44;78.25;97227.63;4975392;28;20416;-90
2024/01/02 08:21:44;;;;;;;0.80;0.80;;;;;;;7.55;77.25;97229.56;4974883;28;20045;-88
2024/01/02 08:24:11;;;;;;;0.80;0.80;;;;;;;7.62;77.35;97227.06;5004288;28;20394;-91
2024/01/02 08:26:38;;;;;;;0.80;0.80;;;;;;;7.60;77.43;97243.81;4987967;28;20046;-90
2024/01/02 08:29:04;;;;;;;0.80;0.80;;;;;;;7.67;77.04;97237.75;4987109;28;20053;-91
2024/01/02 08:31:31;;;;;;;0.80;0.80;;;;;;;7.59;77.71;97247.34;5004518;28;20420;-90
2024/01/02 08:33:56;;;;;;;0.80;0.80;;;;;;;7.51;78.35;97235.69;4986648;28;20022;-92
2024/01/02 08:36:22;;;;;;;0.80;0.80;;;;;;;7.44;78.58;97237.34;5002437;28;20042;-91
2024/01/02 08:38:47;;;;;;;0.80;0.80;;;;;;;7.54;78.24;97241.06;4971929;28;20041;-90
2024/01/02 08:41:13;;;;;;;0.70;0.70;;;;;;;7.56;78.33;97253.47;4989543;28;20038;-88
2024/01/02 08:43:39;;;;;;;0.80;0.80;;;;;;;7.53;78.47;97252.53;4989987;28;20447;-90
2024/01/02 08:46:07;;;;;;;0.80;0.80;;;;;;;7.58;78.49;97245.56;4987123;28;20037;-88
2024/01/02 08:48:33;;;;;;;0.80;0.80;;;;;;;7.53;79.17;97242.81;4989905;28;20046;-90
2024/01/02 08:50:58;;;;;;;0.80;0.80;;;;;;;7.60;78.28;97247.34;4974290;28;20022;-91
2024/01/02 08:53:24;;;;;;;0.80;0.80;;;;;;;7.64;78.33;97243.00;5009727;28;20030;-91
2024/01/02 08:55:50;;;;;;;0.70;0.70;;;;;;;7.67;78.27;97245.72;4995437;28;20084;-90
2024/01/02 08:58:16;;;;;;;0.90;0.90;;;;;;;7.70;77.71;97249.28;5010510;28;20049;-91
2024/01/02 09:00:41;;;;;;;0.90;0.90;;;;;;;7.80;78.04;97246.78;4993447;28;20034;-91
2024/01/02 09:03:10;;;;;;;0.80;0.80;;;;;;;7.75;77.92;97246.69;5007065;28;20389;-91
2024/01/02 09:05:40;;;;;;;0.80;0.80;;;;;;;7.87;76.87;97238.06;5000939;28;20042;-90
2024/01/02 09:08:06;;;;;;;0.80;0.80;;;;;;;7.82;77.77;97242.41;5010800;28;20035;-90
2024/01/02 09:10:31;;;;;;;0.80;0.80;;;;;;;7.75;77.74;97244.06;5011424;28;20572;-89
2024/01/02 09:12:57;;;;;;;0.80;0.80;;;;;;;7.75;77.84;97246.69;4986753;28;20027;-91
2024/01/02 09:15:22;;;;;;;0.80;0.80;;;;;;;7.88;77.84;97238.06;4980456;28;20042;-91
2024/01/02 09:17:48;;;;;;;0.80;0.80;;;;;;;7.88;77.63;97247.81;4975362;28;20476;-91
2024/01/02 09:20:13;;;;;;;0.70;0.70;;;;;;;7.92;77.45;97252.31;4980836;28;20034;-91
2024/01/02 09:22:39;;;;;;;0.70;0.70;;;;;;;7.96;77.44;97247.06;4994306;28;20029;-91
2024/01/02 09:25:05;;;;;;;0.80;0.80;;;;;;;7.98;77.35;97249.72;4979518;28;20229;-90
2024/01/02 09:27:34;;;;;;;0.80;0.80;;;;;;;8.03;76.91;97250.69;4988100;28;20417;-91
2024/01/02 09:30:04;;;;;;;0.80;0.80;;;;;;;8.04;76.72;97247.16;4987214;28;20038;-91
2024/01/02 09:32:30;;;;;;;0.80;0.80;;;;;;;7.96;77.17;97257.69;4991426;28;20053;-89
2024/01/02 09:34:56;;;;;;;0.70;0.70;;;;;;;7.93;77.45;97256.72;4975194;28;20082;-91
2024/01/02 09:37:21;;;;;;;0.70;0.70;;;;;;;7.85;78.61;97261.91;4990658;28;20797;-91
2024/01/02 09:39:50;;;;;;;0.75;0.75;;;;;;;7.77;79.66;97258.25;4975958;28;20022;-91
2024/01/02 09:42:15;;;;;;;0.80;0.80;;;;;;;7.71;80.18;97248.44;5007175;28;20106;-92
2024/01/02 09:44:44;;;;;;;0.80;0.80;;;;;;;7.70;79.69;97257.25;4992677;28;20038;-90
2024/01/02 09:47:34;;;;;;;0.70;0.70;;;;;;;7.77;79.14;97252.94;4976627;28;20076;-89
2024/01/02 09:50:09;;;;;;;0.80;0.80;;;;;;;7.80;78.92;97250.31;4992595;28;20057;-92
2024/01/02 09:53:17;;;;;;;0.88;0.88;;;;;;;7.86;78.89;97254.88;4991793;28;20038;-90
2024/01/02 09:56:03;;;;;;;0.80;0.80;;;;;;;7.85;79.27;97251.28;4989079;28;20799;-92
2024/01/02 09:58:48;;;;;;;0.82;0.82;;;;;;;7.84;79.76;97246.84;4993030;28;20041;-91
2024/01/02 10:01:34;;;;;;;0.80;0.80;;;;;;;7.87;78.79;97249.56;4991301;28;20476;-91
2024/01/02 10:04:06;;;;;;;;;;;;;;;7.79;78.89;97245.00;4993143;28;20121;-92
2024/01/02 10:06:53;;;;;;;0.80;0.80;;;;;;;8.00;78.08;97239.13;4993780;28;20304;-91
2024/01/02 10:09:41;;;;;;;0.80;0.80;;;;;;;8.02;79.15;97243.59;4988531;28;20045;-90
2024/01/02 10:12:32;;;;;;;0.80;0.80;;;;;;;8.12;77.58;97245.53;5008650;28;20031;-90
2024/01/02 10:15:12;;;;;;;0.80;0.80;;;;;;;8.10;78.53;97243.72;4977651;28;20049;-92
2024/01/02 10:18:05;;;;;;;0.80;0.80;;;;;;;8.02;78.08;97243.59;4993165;28;20054;-91
2024/01/02 10:21:16;;;;;;;0.80;0.80;;;;;;;8.06;78.83;97248.09;5005653;28;20435;-91
2024/01/02 10:23:59;;;;;;;0.70;0.70;;;;;;;8.22;77.84;97242.13;4991986;28;20027;-89
2024/01/02 10:26:27;;;;;;;0.80;0.80;;;;;;;8.26;77.51;97236.88;4976714;28;20068;-89
2024/01/02 10:29:00;;;;;;;0.70;0.70;;;;;;;8.40;76.57;97236.22;4978542;28;20023;-92
2024/01/02 10:31:34;;;;;;;0.80;0.80;;;;;;;8.36;77.04;97226.41;4995947;28;20053;-90
2024/01/02 10:34:37;;;;;;;0.70;0.70;;;;;;;8.32;77.57;97234.28;4997230;28;20039;-92
2024/01/02 10:37:05;;;;;;;0.80;0.80;;;;;;;8.40;77.23;97224.69;4990460;28;20106;-93
2024/01/02 10:39:45;;;;;;;0.80;0.80;;;;;;;8.42;77.42;97221.16;4968976;28;20217;-92
2024/01/02 10:42:19;;;;;;;0.70;0.70;;;;;;;8.44;77.64;97208.81;4979792;28;20465;-91
2024/01/02 10:44:57;;;;;;;0.70;0.70;;;;;;;8.70;75.81;97208.22;5004656;28;20038;-91
2024/01/02 10:47:44;;;;;;;0.70;0.70;;;;;;;8.81;75.31;97206.56;4993321;28;20038;-92
2024/01/02 10:50:19;;;;;;;0.70;0.70;;;;;;;8.89;75.17;97202.25;4994936;28;20107;-94
2024/01/02 10:52:59;;;;;;;0.80;0.80;;;;;;;8.94;75.32;97191.66;4997686;28;20072;-92
2024/01/02 10:55:34;;;;;;;0.70;0.70;;;;;;;9.08;74.31;97190.03;4991968;28;20061;-93
2024/01/02 10:58:15;;;;;;;0.70;0.70;;;;;;;9.27;73.53;97192.88;5009292;28;20078;-93
2024/01/02 11:00:51;;;;;;;0.70;0.70;;;;;;;9.17;74.54;97179.47;4987308;28;20034;-89
2024/01/02 11:03:19;;;;;;;0.63;0.63;;;;;;;9.30;73.24;97176.94;5007250;28;20066;-90
2024/01/02 11:05:55;;;;;;;0.63;0.63;;;;;;;9.40;72.97;97166.38;4983581;28;20116;-90
2024/01/02 11:08:52;;;;;;;0.70;0.70;;;;;;;9.43;72.83;97162.84;4994852;28;20133;-91
2024/01/02 11:11:18;;;;;;;0.80;0.80;;;;;;;9.31;73.41;97165.41;4995729;28;20136;-92
2024/01/02 11:13:46;;;;;;;0.80;0.80;;;;;;;9.21;73.72;97161.78;4996163;28;20046;-91
2024/01/02 11:16:22;;;;;;;0.70;0.70;;;;;;;9.30;73.67;97156.56;5003859;28;20027;-90
2024/01/02 11:18:52;;;;;;;0.70;0.70;;;;;;;9.25;73.94;97158.28;5007319;28;20038;-93
2024/01/02 11:21:29;;;;;;;0.70;0.70;;;;;;;9.25;74.05;97160.94;5026051;28;20072;-92
2024/01/02 11:23:56;;;;;;;0.70;0.70;;;;;;;9.09;74.34;97148.34;5008244;28;20069;-91
2024/01/02 11:26:44;;;;;;;0.70;0.70;;;;;;;9.13;74.41;97147.50;4989962;28;20488;-90
2024/01/02 11:29:18;;;;;;;0.70;0.70;;;;;;;9.10;75.23;97144.81;5003759;28;20065;-91
2024/01/02 11:31:48;;;;;;;0.80;0.80;;;;;;;9.25;74.19;97131.66;5012892;28;20097;-91
2024/01/02 11:34:49;;;;;;;0.70;0.70;;;;;;;9.35;73.75;97125.53;5000066;28;20780;-92
2024/01/02 11:37:37;;;;;;;0.80;0.80;;;;;;;9.45;72.86;97116.75;5017473;28;20089;-91
2024/01/02 11:40:44;;;;;;;0.73;0.73;;;;;;;9.57;72.67;97118.59;4986502;28;20058;-90
2024/01/02 11:43:54;;;;;;;0.70;0.70;;;;;;;9.70;72.02;97115.13;4979113;28;20066;-93
2024/01/02 11:46:25;;;;;;;0.70;0.70;;;;;;;9.71;72.26;97111.59;5007289;28;20042;-90
2024/01/02 11:49:10;;;;;;;0.60;0.60;;;;;;;9.67;72.03;97099.13;4973793;28;20180;-91
2024/01/02 11:51:41;;;;;;;0.70;0.70;;;;;;;9.65;71.67;97108.00;4974464;28;20523;-90